createdAt,value
2023-01-09T00:00:53.513Z,56.47
2023-01-09T00:03:20.823Z,52.40
2023-01-09T00:05:47.629Z,42.88
2023-01-09T00:08:14.852Z,45.40
2023-01-09T00:10:42.113Z,51.78
2023-01-09T00:13:12.704Z,50.72
2023-01-09T00:15:41.573Z,40.45
2023-01-09T00:18:09.195Z,43.83
2023-01-09T00:20:36.729Z,45.20
2023-01-09T00:23:04.125Z,36.05
2023-01-09T00:25:30.932Z,49.10
2023-01-09T00:27:58.368Z,65.85
2023-01-09T00:30:25.834Z,59.75
2023-01-09T00:32:54.247Z,47.75
2023-01-09T00:35:23.997Z,58.05
2023-01-09T00:37:50.773Z,53.75
2023-01-09T00:40:19.105Z,41.97
2023-01-09T00:42:53.812Z,45.50
2023-01-09T00:45:29.023Z,44.55
2023-01-09T00:48:02.447Z,44.88
2023-01-09T00:50:33.491Z,49.75
2023-01-09T00:53:03.725Z,43.75
2023-01-09T00:55:31.008Z,45.83
2023-01-09T00:57:57.898Z,51.38
2023-01-09T01:00:25.113Z,62.83
2023-01-09T01:02:51.983Z,41.25
2023-01-09T01:05:37.841Z,48.30
2023-01-09T01:08:14.556Z,49.75
2023-01-09T01:10:42.389Z,43.42
2023-01-09T01:13:09.268Z,45.85
2023-01-09T01:15:39.395Z,52.53
2023-01-09T01:18:07.259Z,51.83
2023-01-09T01:20:34.418Z,59.25
2023-01-09T01:23:01.881Z,42.10
2023-01-09T01:25:28.776Z,54.80
2023-01-09T01:27:55.854Z,43.30
2023-01-09T01:30:24.761Z,46.20
2023-01-09T01:32:52.030Z,69.70
2023-01-09T01:35:19.059Z,51.83
2023-01-09T01:37:46.256Z,52.75
2023-01-09T01:40:13.195Z,61.45
2023-01-09T01:42:49.220Z,45.22
2023-01-09T01:45:15.971Z,32.28
2023-01-09T01:47:58.855Z,47.90
2023-01-09T01:50:40.341Z,38.30
2023-01-09T01:53:14.520Z,40.30
2023-01-09T01:55:55.217Z,40.35
2023-01-09T01:58:22.610Z,43.35
2023-01-09T02:00:50.875Z,37.13
2023-01-09T02:03:21.972Z,42.83
2023-01-09T02:05:49.551Z,47.90
2023-01-09T02:08:17.536Z,49.50
2023-01-09T02:10:45.563Z,44.88
2023-01-09T02:13:13.484Z,47.97
2023-01-09T02:15:56.013Z,49.92
2023-01-09T02:18:35.123Z,42.10
2023-01-09T02:21:15.012Z,49.40
2023-01-09T02:24:40.637Z,54.00
2023-01-09T02:27:35.205Z,49.83
2023-01-09T02:30:33.337Z,49.20
2023-01-09T02:33:06.490Z,45.58
2023-01-09T02:35:45.468Z,44.42
2023-01-09T02:38:34.755Z,40.05
2023-01-09T02:41:09.044Z,47.58
2023-01-09T02:43:35.828Z,44.42
2023-01-09T02:46:02.650Z,43.72
2023-01-09T02:48:30.827Z,41.17
2023-01-09T02:51:17.928Z,43.45
2023-01-09T02:53:52.004Z,45.97
2023-01-09T02:57:06.741Z,44.50
2023-01-09T02:59:47.556Z,45.22
2023-01-09T03:02:38.725Z,47.55
2023-01-09T03:05:36.164Z,53.53
2023-01-09T03:08:07.817Z,44.13
2023-01-09T03:11:02.371Z,51.88
2023-01-09T03:13:42.434Z,46.45
2023-01-09T03:16:13.007Z,64.40
2023-01-09T03:18:41.405Z,44.42
2023-01-09T03:21:10.113Z,43.95
2023-01-09T03:23:47.947Z,46.58
2023-01-09T03:26:15.206Z,43.25
2023-01-09T03:28:42.675Z,46.15
2023-01-09T03:31:10.368Z,40.63
2023-01-09T03:33:37.132Z,38.88
2023-01-09T03:36:04.676Z,37.38
2023-01-09T03:38:31.525Z,37.10
2023-01-09T03:40:58.388Z,37.47
2023-01-09T03:43:25.796Z,37.13
2023-01-09T03:45:55.309Z,40.75
2023-01-09T03:48:30.478Z,35.85
2023-01-09T03:50:58.232Z,45.97
2023-01-09T03:53:27.583Z,37.20
2023-01-09T03:55:57.343Z,40.05
2023-01-09T03:58:25.359Z,35.60
2023-01-09T04:00:57.767Z,41.80
2023-01-09T04:03:24.662Z,35.63
2023-01-09T04:05:54.399Z,38.08
2023-01-09T04:08:21.936Z,30.80
2023-01-09T04:10:50.804Z,32.17
2023-01-09T04:13:18.105Z,40.55
2023-01-09T04:15:45.285Z,35.10
2023-01-09T04:18:12.107Z,38.25
2023-01-09T04:20:39.033Z,26.85
2023-01-09T04:23:06.670Z,35.38
2023-01-09T04:25:33.995Z,43.17
2023-01-09T04:28:01.360Z,54.80
2023-01-09T04:30:28.192Z,34.63
2023-01-09T04:32:55.030Z,36.58
2023-01-09T04:35:22.168Z,34.60
2023-01-09T04:37:49.000Z,30.52
2023-01-09T04:40:17.113Z,33.67
2023-01-09T04:42:43.908Z,29.50
2023-01-09T04:45:11.903Z,33.03
2023-01-09T04:47:39.027Z,35.53
2023-01-09T04:50:06.224Z,29.02
2023-01-09T04:55:08.343Z,36.58
2023-01-09T04:57:35.946Z,33.45
2023-01-09T05:00:04.224Z,34.63
2023-01-09T05:02:31.184Z,35.13
2023-01-09T05:04:58.036Z,32.00
2023-01-09T05:07:24.892Z,40.42
2023-01-09T05:09:52.353Z,37.05
2023-01-09T05:12:19.222Z,38.65
2023-01-09T05:14:46.402Z,38.35
2023-01-09T05:17:13.228Z,36.00
2023-01-09T05:19:40.598Z,40.63
2023-01-09T05:22:07.869Z,34.60
2023-01-09T05:24:35.265Z,39.20
2023-01-09T05:27:02.869Z,36.33
2023-01-09T05:29:30.724Z,46.20
2023-01-09T05:31:58.743Z,38.40
2023-01-09T05:34:25.596Z,39.80
2023-01-09T05:36:54.284Z,40.67
2023-01-09T05:39:24.754Z,38.83
2023-01-09T05:41:53.167Z,43.78
2023-01-09T05:44:22.428Z,40.95
2023-01-09T05:46:50.659Z,37.58
2023-01-09T05:52:05.567Z,39.60
2023-01-09T05:54:32.385Z,42.65
2023-01-09T05:57:05.205Z,46.00
2023-01-09T05:59:33.871Z,34.08
2023-01-09T06:02:01.193Z,39.70
2023-01-09T06:04:30.033Z,41.25
2023-01-09T06:06:57.480Z,47.58
2023-01-09T06:09:24.740Z,38.58
2023-01-09T06:11:51.949Z,42.33
2023-01-09T06:14:18.775Z,43.03
2023-01-09T06:16:45.697Z,39.75
2023-01-09T06:19:12.703Z,37.80
2023-01-09T06:21:41.045Z,36.88
2023-01-09T06:24:08.017Z,37.60
2023-01-09T06:26:35.288Z,40.90
2023-01-09T06:29:02.377Z,32.42
2023-01-09T06:31:29.308Z,31.98
2023-01-09T06:33:56.182Z,37.30
2023-01-09T06:36:23.294Z,36.83
2023-01-09T06:38:50.113Z,35.80
2023-01-09T06:41:17.316Z,32.83
2023-01-09T06:43:44.136Z,33.63
2023-01-09T06:46:11.169Z,35.60
2023-01-09T06:48:37.969Z,34.55
2023-01-09T06:51:04.925Z,36.30
2023-01-09T06:53:31.855Z,36.20
2023-01-09T06:55:59.081Z,32.33
2023-01-09T06:58:25.980Z,27.98
2023-01-09T07:00:53.688Z,35.53
2023-01-09T07:03:22.361Z,31.60
2023-01-09T07:05:49.771Z,34.63
2023-01-09T07:08:16.977Z,33.83
2023-01-09T07:10:44.619Z,36.45
2023-01-09T07:13:12.177Z,48.60
2023-01-09T07:15:39.338Z,31.30
2023-01-09T07:18:06.190Z,32.67
2023-01-09T07:20:33.589Z,26.67
2023-01-09T07:23:00.453Z,33.50
2023-01-09T07:25:27.625Z,35.47
2023-01-09T07:27:54.881Z,41.35
2023-01-09T07:30:21.698Z,31.60
2023-01-09T07:32:48.588Z,35.00
2023-01-09T07:35:15.539Z,30.52
2023-01-09T07:37:42.377Z,38.58
2023-01-09T07:40:10.242Z,34.35
2023-01-09T07:42:37.096Z,34.80
2023-01-09T07:45:04.567Z,33.72
2023-01-09T07:47:32.932Z,38.45
2023-01-09T07:50:01.907Z,36.10
2023-01-09T07:52:30.440Z,36.15
2023-01-09T07:54:59.775Z,36.45
2023-01-09T08:00:14.186Z,34.60
2023-01-09T08:02:41.960Z,34.58
2023-01-09T08:05:13.696Z,38.70
2023-01-09T08:07:41.145Z,31.58
2023-01-09T08:10:08.643Z,32.53
2023-01-09T08:12:35.535Z,35.38
2023-01-09T08:15:02.955Z,39.70
2023-01-09T08:17:29.778Z,38.25
2023-01-09T08:19:57.099Z,35.75
2023-01-09T08:22:24.115Z,35.35
2023-01-09T08:24:51.350Z,33.15
2023-01-09T08:27:18.123Z,42.80
2023-01-09T08:29:44.982Z,47.70
2023-01-09T08:32:11.775Z,45.33
2023-01-09T08:34:38.617Z,50.28
2023-01-09T08:37:07.674Z,48.58
2023-01-09T08:39:36.579Z,43.08
2023-01-09T08:42:22.864Z,38.90
2023-01-09T08:45:08.373Z,42.92
2023-01-09T08:47:35.657Z,36.58
2023-01-09T08:50:04.437Z,40.85
2023-01-09T08:52:31.368Z,35.38
2023-01-09T08:54:58.791Z,41.97
2023-01-09T08:57:25.829Z,36.35
2023-01-09T08:59:53.185Z,37.35
2023-01-09T09:02:20.063Z,45.30
2023-01-09T09:04:48.504Z,41.25
2023-01-09T09:07:15.291Z,35.72
2023-01-09T09:09:42.338Z,37.90
2023-01-09T09:12:09.243Z,29.40
2023-01-09T09:14:55.106Z,35.50
2023-01-09T09:17:22.623Z,27.73
2023-01-09T09:19:49.426Z,26.23
2023-01-09T09:22:16.672Z,33.17
2023-01-09T09:24:43.479Z,28.27
2023-01-09T09:27:10.384Z,30.65
2023-01-09T09:29:37.179Z,31.65
2023-01-09T09:32:04.535Z,30.00
2023-01-09T09:34:31.541Z,26.38
2023-01-09T09:37:01.068Z,31.10
2023-01-09T09:39:28.053Z,32.17
2023-01-09T09:42:43.506Z,32.13
2023-01-09T09:45:15.941Z,29.92
2023-01-09T09:47:51.965Z,27.55
2023-01-09T09:50:46.483Z,29.77
2023-01-09T09:53:27.313Z,33.92
2023-01-09T09:55:54.538Z,25.55
2023-01-09T09:58:39.027Z,27.98
2023-01-09T10:01:08.621Z,29.77
2023-01-09T10:03:47.023Z,30.40
2023-01-09T10:06:34.673Z,28.52
2023-01-09T10:09:14.677Z,25.63
2023-01-09T10:12:14.501Z,28.42
2023-01-09T10:14:41.793Z,28.02
2023-01-09T10:17:23.947Z,27.63
2023-01-09T10:20:30.537Z,26.75
2023-01-09T10:23:10.866Z,28.80
2023-01-09T10:26:05.248Z,36.17
2023-01-09T10:29:07.790Z,30.58
2023-01-09T10:31:41.169Z,26.88
2023-01-09T10:34:14.598Z,26.70
2023-01-09T10:36:51.710Z,35.88
2023-01-09T10:39:27.557Z,23.42
2023-01-09T10:42:20.833Z,26.15
2023-01-09T10:45:02.087Z,30.42
2023-01-09T10:47:40.241Z,29.83
2023-01-09T10:50:22.740Z,22.23
2023-01-09T10:52:52.267Z,31.98
2023-01-09T10:55:36.489Z,32.38
2023-01-09T10:58:11.399Z,42.22
2023-01-09T11:00:39.859Z,30.13
2023-01-09T11:03:10.962Z,33.05
2023-01-09T11:05:37.818Z,34.88
2023-01-09T11:08:14.098Z,32.10
2023-01-09T11:11:02.083Z,33.28
2023-01-09T11:13:34.377Z,30.52
2023-01-09T11:16:22.085Z,34.05
2023-01-09T11:18:58.813Z,24.83
2023-01-09T11:21:36.429Z,25.17
2023-01-09T11:24:21.897Z,23.92
2023-01-09T11:26:51.477Z,31.17
2023-01-09T11:29:21.346Z,26.25
2023-01-09T11:31:59.807Z,22.88
2023-01-09T11:34:33.050Z,24.15
2023-01-09T11:37:11.745Z,27.17
2023-01-09T11:39:41.940Z,22.70
2023-01-09T11:42:41.595Z,28.75
2023-01-09T11:45:14.989Z,25.50
2023-01-09T11:47:41.975Z,24.60
2023-01-09T11:50:17.070Z,20.02
2023-01-09T11:52:44.008Z,27.95
2023-01-09T11:55:18.925Z,23.92
2023-01-09T11:57:45.940Z,17.77
2023-01-09T12:00:37.699Z,10.27
2023-01-09T12:03:14.049Z,10.55
2023-01-09T12:06:22.407Z,8.90
2023-01-09T12:09:12.189Z,9.52
2023-01-09T12:11:55.916Z,5.80
2023-01-09T12:14:58.045Z,10.10
2023-01-09T12:17:43.005Z,9.43
2023-01-09T12:20:16.659Z,10.05
2023-01-09T12:23:05.655Z,10.80
2023-01-09T12:26:14.380Z,8.15
2023-01-09T12:28:59.812Z,8.40
2023-01-09T12:31:51.276Z,7.15
2023-01-09T12:34:30.341Z,9.52
2023-01-09T12:37:29.931Z,8.43
2023-01-09T12:40:06.503Z,7.60
2023-01-09T12:42:42.567Z,6.95
2023-01-09T12:45:33.329Z,7.28
2023-01-09T12:48:23.872Z,7.75
2023-01-09T12:51:01.963Z,7.35
2023-01-09T12:53:37.447Z,7.55
2023-01-09T12:56:09.954Z,7.03
2023-01-09T12:58:44.867Z,7.85
2023-01-09T13:01:18.670Z,11.85
2023-01-09T13:03:50.067Z,6.43
2023-01-09T13:06:19.433Z,6.63
2023-01-09T13:08:53.754Z,7.45
2023-01-09T13:11:24.252Z,5.53
2023-01-09T13:14:19.224Z,6.90
2023-01-09T13:16:53.227Z,6.13
2023-01-09T13:19:42.465Z,7.32
2023-01-09T13:22:14.534Z,6.10
2023-01-09T13:25:04.892Z,8.85
2023-01-09T13:27:36.421Z,5.93
2023-01-09T13:30:22.508Z,9.30
2023-01-09T13:33:08.269Z,8.10
2023-01-09T13:35:46.933Z,9.50
2023-01-09T13:38:19.927Z,10.63
2023-01-09T13:40:46.788Z,11.35
2023-01-09T13:43:17.148Z,9.52
2023-01-09T13:45:50.743Z,7.47
2023-01-09T13:48:24.713Z,9.73
2023-01-09T13:50:55.973Z,9.52
2023-01-09T13:53:27.233Z,8.15
2023-01-09T13:56:03.375Z,8.40
2023-01-09T13:58:31.997Z,7.70
2023-01-09T14:01:22.146Z,7.63
2023-01-09T14:04:24.505Z,8.18
2023-01-09T14:07:21.240Z,8.18
2023-01-09T14:09:53.144Z,8.35
2023-01-09T14:12:21.852Z,7.03
2023-01-09T14:14:49.518Z,8.93
2023-01-09T14:17:27.303Z,9.35
2023-01-09T14:20:00.174Z,10.23
2023-01-09T14:22:46.199Z,8.65
2023-01-09T14:25:26.139Z,8.02
2023-01-09T14:27:58.394Z,8.77
2023-01-09T14:30:30.196Z,7.80
2023-01-09T14:33:20.150Z,8.07
2023-01-09T14:36:13.244Z,20.30
2023-01-09T14:38:48.946Z,8.45
2023-01-09T14:41:15.785Z,11.77
2023-01-09T14:44:06.853Z,12.57
2023-01-09T14:46:39.303Z,9.98
2023-01-09T14:49:38.267Z,9.88
2023-01-09T14:52:32.037Z,9.05
2023-01-09T14:55:01.656Z,10.52
2023-01-09T14:57:29.980Z,9.50
2023-01-09T15:00:18.711Z,9.38
2023-01-09T15:02:47.006Z,8.80
2023-01-09T15:05:24.568Z,12.27
2023-01-09T15:08:04.776Z,7.97
2023-01-09T15:10:35.894Z,8.60
2023-01-09T15:13:07.671Z,7.53
2023-01-09T15:15:36.228Z,7.03
2023-01-09T15:18:07.151Z,8.38
2023-01-09T15:20:34.676Z,5.50
2023-01-09T15:23:04.263Z,6.30
2023-01-09T15:25:40.042Z,6.75
2023-01-09T15:28:27.199Z,6.07
2023-01-09T15:31:03.434Z,4.70
2023-01-09T15:33:31.338Z,7.30
2023-01-09T15:36:02.613Z,7.03
2023-01-09T15:38:32.723Z,6.60
2023-01-09T15:41:04.672Z,6.05
2023-01-09T15:43:32.101Z,6.85
2023-01-09T15:46:00.875Z,8.02
2023-01-09T15:48:34.026Z,7.45
2023-01-09T15:51:05.243Z,8.20
2023-01-09T15:53:35.916Z,7.40
2023-01-09T15:56:08.065Z,10.93
2023-01-09T15:58:37.724Z,11.25
2023-01-09T16:01:35.025Z,7.55
2023-01-09T16:04:13.501Z,11.45
2023-01-09T16:06:51.357Z,8.50
2023-01-09T16:09:26.893Z,7.03
2023-01-09T16:12:00.899Z,8.90
2023-01-09T16:14:38.955Z,8.35
2023-01-09T16:17:12.255Z,11.88
2023-01-09T16:19:50.175Z,13.23
2023-01-09T16:22:32.028Z,8.95
2023-01-09T16:25:01.242Z,9.10
2023-01-09T16:27:31.367Z,8.75
2023-01-09T16:30:00.557Z,10.73
2023-01-09T16:32:37.123Z,7.72
2023-01-09T16:35:07.731Z,6.82
2023-01-09T16:37:34.857Z,12.55
2023-01-09T16:40:18.173Z,10.60
2023-01-09T16:43:02.118Z,8.50
2023-01-09T16:45:40.603Z,12.15
2023-01-09T16:48:20.112Z,11.20
2023-01-09T16:50:47.224Z,10.68
2023-01-09T16:53:22.007Z,16.50
2023-01-09T16:55:49.499Z,15.10
2023-01-09T16:58:22.944Z,12.82
2023-01-09T17:00:49.897Z,10.48
2023-01-09T17:03:17.714Z,18.35
2023-01-09T17:05:44.830Z,18.10
2023-01-09T17:08:27.271Z,17.33
2023-01-09T17:10:55.835Z,17.23
2023-01-09T17:13:23.503Z,14.25
2023-01-09T17:15:52.917Z,18.85
2023-01-09T17:18:22.086Z,10.20
2023-01-09T17:20:52.392Z,15.18
2023-01-09T17:23:23.466Z,14.35
2023-01-09T17:26:12.321Z,13.93
2023-01-09T17:28:43.705Z,16.77
2023-01-09T17:31:13.504Z,11.77
2023-01-09T17:33:41.915Z,15.13
2023-01-09T17:36:34.760Z,13.38
2023-01-09T17:39:02.180Z,13.48
2023-01-09T17:41:31.300Z,13.30
2023-01-09T17:43:59.345Z,11.75
2023-01-09T17:46:33.245Z,13.98
2023-01-09T17:49:03.282Z,10.77
2023-01-09T17:51:30.487Z,15.80
2023-01-09T17:54:00.171Z,16.42
2023-01-09T17:56:34.958Z,18.48
2023-01-09T17:59:05.003Z,11.68
2023-01-09T18:01:32.685Z,13.50
2023-01-09T18:03:59.659Z,11.15
2023-01-09T18:06:26.850Z,12.48
2023-01-09T18:08:55.712Z,12.63
2023-01-09T18:11:24.533Z,16.80
2023-01-09T18:13:56.362Z,9.80
2023-01-09T18:16:26.182Z,14.60
2023-01-09T18:18:54.553Z,13.77
2023-01-09T18:21:23.589Z,16.02
2023-01-09T18:23:50.587Z,10.10
2023-01-09T18:26:22.340Z,12.43
2023-01-09T18:28:52.377Z,10.50
2023-01-09T18:31:22.906Z,11.13
2023-01-09T18:33:54.216Z,13.05
2023-01-09T18:36:24.261Z,12.23
2023-01-09T18:38:53.630Z,10.52
2023-01-09T18:41:21.936Z,13.75
2023-01-09T18:43:53.981Z,13.93
2023-01-09T18:46:24.979Z,16.05
2023-01-09T18:48:56.215Z,16.67
2023-01-09T18:51:25.410Z,16.65
2023-01-09T18:53:52.548Z,14.50
2023-01-09T18:56:20.617Z,17.23
2023-01-09T18:58:49.215Z,13.68
2023-01-09T19:01:17.503Z,15.55
2023-01-09T19:03:45.245Z,25.08
2023-01-09T19:06:13.493Z,18.17
2023-01-09T19:08:40.452Z,22.08
2023-01-09T19:11:07.323Z,19.20
2023-01-09T19:13:36.588Z,17.10
2023-01-09T19:16:05.177Z,19.42
2023-01-09T19:18:38.187Z,19.27
2023-01-09T19:21:16.393Z,20.23
2023-01-09T19:23:44.338Z,17.52
2023-01-09T19:26:17.795Z,17.90
2023-01-09T19:28:46.651Z,20.33
2023-01-09T19:31:14.765Z,19.13
2023-01-09T19:33:41.719Z,19.98
2023-01-09T19:36:09.840Z,16.50
2023-01-09T19:38:36.869Z,18.75
2023-01-09T19:41:13.391Z,15.98
2023-01-09T19:43:44.105Z,17.90
2023-01-09T19:46:14.291Z,16.85
2023-01-09T19:48:43.782Z,22.27
2023-01-09T19:51:12.794Z,20.63
2023-01-09T19:53:40.798Z,16.33
2023-01-09T19:56:19.408Z,16.35
2023-01-09T19:58:52.013Z,23.00
2023-01-09T20:01:27.264Z,21.23
2023-01-09T20:03:56.544Z,22.20
2023-01-09T20:06:25.529Z,27.10
2023-01-09T20:08:57.639Z,26.25
2023-01-09T20:11:28.657Z,33.28
2023-01-09T20:13:56.234Z,31.00
2023-01-09T20:16:28.918Z,26.88
2023-01-09T20:19:03.676Z,29.65
2023-01-09T20:21:31.011Z,29.17
2023-01-09T20:24:01.528Z,32.50
2023-01-09T20:26:29.276Z,30.00
2023-01-09T20:28:57.427Z,38.83
2023-01-09T20:31:28.262Z,32.00
2023-01-09T20:33:55.562Z,34.88
2023-01-09T20:36:27.805Z,28.48
2023-01-09T20:38:55.433Z,27.67
2023-01-09T20:41:23.273Z,31.63
2023-01-09T20:44:11.865Z,36.65
2023-01-09T20:46:41.101Z,41.42
2023-01-09T20:49:11.891Z,36.58
2023-01-09T20:51:47.454Z,31.20
2023-01-09T20:54:15.273Z,33.28
2023-01-09T20:56:42.552Z,28.55
2023-01-09T20:59:18.818Z,27.75
2023-01-09T21:01:46.385Z,26.58
2023-01-09T21:04:13.438Z,21.98
2023-01-09T21:06:44.420Z,26.65
2023-01-09T21:09:11.555Z,26.95
2023-01-09T21:14:25.885Z,24.88
2023-01-09T21:16:55.288Z,22.40
2023-01-09T21:19:23.353Z,21.92
2023-01-09T21:21:53.210Z,25.30
2023-01-09T21:24:20.994Z,35.90
2023-01-09T21:26:47.845Z,26.25
2023-01-09T21:29:20.364Z,23.42
2023-01-09T21:31:48.125Z,23.30
2023-01-09T21:34:19.008Z,23.13
2023-01-09T21:36:50.319Z,18.75
2023-01-09T21:39:25.050Z,21.15
2023-01-09T21:42:24.950Z,22.90
2023-01-09T21:45:10.570Z,21.35
2023-01-09T21:47:37.616Z,19.95
2023-01-09T21:50:20.224Z,14.13
2023-01-09T21:55:25.723Z,17.55
2023-01-09T21:58:20.664Z,18.65
2023-01-09T22:00:49.842Z,23.02
2023-01-09T22:05:48.933Z,17.77
2023-01-09T22:08:15.838Z,13.82
2023-01-09T22:10:42.667Z,17.95
2023-01-09T22:13:18.502Z,17.55
2023-01-09T22:15:52.283Z,20.85
2023-01-09T22:18:19.828Z,11.80
2023-01-09T22:20:46.681Z,16.83
2023-01-09T22:23:13.549Z,17.00
2023-01-09T22:25:42.043Z,16.92
2023-01-09T22:28:10.827Z,16.55
2023-01-09T22:30:41.698Z,16.38
2023-01-09T22:33:11.384Z,15.82
2023-01-09T22:35:40.057Z,16.10
2023-01-09T22:38:07.642Z,18.92
2023-01-09T22:40:34.848Z,19.25
2023-01-09T22:43:01.642Z,17.13
2023-01-09T22:45:29.847Z,20.60
2023-01-09T22:47:57.639Z,21.25
2023-01-09T22:50:25.153Z,21.30
2023-01-09T22:52:52.278Z,19.02
2023-01-09T22:55:19.129Z,19.52
2023-01-09T22:57:45.967Z,21.35
2023-01-09T23:00:14.081Z,22.05
2023-01-09T23:02:41.470Z,21.92
2023-01-09T23:05:24.587Z,18.25
2023-01-09T23:07:51.886Z,24.92
2023-01-09T23:10:22.285Z,19.73
2023-01-09T23:12:50.441Z,18.30
2023-01-09T23:15:40.553Z,17.02
2023-01-09T23:18:08.415Z,19.17
2023-01-09T23:20:35.191Z,22.30
2023-01-09T23:23:02.217Z,17.27
2023-01-09T23:25:29.484Z,16.80
2023-01-09T23:27:56.287Z,16.45
2023-01-09T23:30:23.575Z,21.55
2023-01-09T23:32:51.003Z,21.85
2023-01-09T23:35:17.880Z,16.08
2023-01-09T23:37:44.685Z,15.80
2023-01-09T23:40:13.304Z,15.60
2023-01-09T23:42:59.105Z,18.25
2023-01-09T23:45:25.942Z,14.07
2023-01-09T23:47:53.159Z,16.23
2023-01-09T23:50:19.944Z,15.57
2023-01-09T23:52:46.749Z,17.02
2023-01-09T23:55:14.871Z,14.80
2023-01-09T23:57:42.198Z,14.73
